createdAt,value
2019-06-20T00:01:54.047Z,65.47
2019-06-20T00:04:23.530Z,65.51
2019-06-20T00:06:53.027Z,64.98
2019-06-20T00:09:22.560Z,65.26
2019-06-20T00:11:52.267Z,65.13
2019-06-20T00:14:21.758Z,65.61
2019-06-20T00:16:51.302Z,65.34
2019-06-20T00:19:20.766Z,65.56
2019-06-20T00:21:50.246Z,66.46
2019-06-20T00:24:19.734Z,65.81
2019-06-20T00:26:49.276Z,66.53
2019-06-20T00:29:18.904Z,66.40
2019-06-20T00:31:48.405Z,66.88
2019-06-20T00:34:17.863Z,66.65
2019-06-20T00:36:47.359Z,67.31
2019-06-20T00:39:16.839Z,66.94
2019-06-20T00:41:46.379Z,66.86
2019-06-20T00:44:15.858Z,67.56
2019-06-20T00:46:45.324Z,67.39
2019-06-20T00:49:14.803Z,67.38
2019-06-20T00:51:44.333Z,67.93
2019-06-20T00:54:15.360Z,67.85
2019-06-20T00:56:44.831Z,67.51
2019-06-20T00:59:14.356Z,67.75
2019-06-20T01:01:43.862Z,67.92
2019-06-20T01:04:13.583Z,67.43
2019-06-20T01:06:43.081Z,67.43
2019-06-20T01:09:12.628Z,68.25
2019-06-20T01:11:42.248Z,67.64
2019-06-20T01:14:11.726Z,68.09
2019-06-20T01:16:41.231Z,67.62
2019-06-20T01:19:10.756Z,67.68
2019-06-20T01:21:40.388Z,67.64
2019-06-20T01:24:09.859Z,67.74
2019-06-20T01:26:39.342Z,67.73
2019-06-20T01:29:08.922Z,67.18
2019-06-20T01:31:38.411Z,67.39
2019-06-20T01:34:08.021Z,66.89
2019-06-20T01:36:37.598Z,67.15
2019-06-20T01:39:08.575Z,67.08
2019-06-20T01:41:38.254Z,66.35
2019-06-20T01:44:07.806Z,66.04
2019-06-20T01:46:37.299Z,65.88
2019-06-20T01:49:07.039Z,66.18
2019-06-20T01:51:36.565Z,65.63
2019-06-20T01:54:06.215Z,66.64
2019-06-20T01:56:38.442Z,65.92
2019-06-20T01:59:07.986Z,65.36
2019-06-20T02:01:37.609Z,66.13
2019-06-20T02:04:07.365Z,64.98
2019-06-20T02:06:36.861Z,64.73
2019-06-20T02:09:09.021Z,64.63
2019-06-20T02:11:38.588Z,64.43
2019-06-20T02:14:08.313Z,65.00
2019-06-20T02:16:37.844Z,64.64
2019-06-20T02:19:07.359Z,64.39
2019-06-20T02:21:36.925Z,64.17
2019-06-20T02:24:06.450Z,64.05
2019-06-20T02:26:36.067Z,64.17
2019-06-20T02:29:05.811Z,63.99
2019-06-20T02:31:35.345Z,64.56
2019-06-20T02:34:04.971Z,63.84
2019-06-20T02:36:34.437Z,64.37
2019-06-20T02:39:05.114Z,63.75
2019-06-20T02:41:34.834Z,63.52
2019-06-20T02:44:05.419Z,64.25
2019-06-20T02:46:34.975Z,64.69
2019-06-20T02:49:04.777Z,63.57
2019-06-20T02:51:34.890Z,63.67
2019-06-20T02:54:04.470Z,63.89
2019-06-20T02:56:34.004Z,64.65
2019-06-20T02:59:03.553Z,63.88
2019-06-20T03:01:33.031Z,63.51
2019-06-20T03:04:02.499Z,63.25
2019-06-20T03:06:32.200Z,63.36
2019-06-20T03:09:01.714Z,63.31
2019-06-20T03:11:31.183Z,63.37
2019-06-20T03:14:00.743Z,63.26
2019-06-20T03:16:30.205Z,63.22
2019-06-20T03:18:59.710Z,63.25
2019-06-20T03:21:29.175Z,63.24
2019-06-20T03:23:58.746Z,63.45
2019-06-20T03:26:28.232Z,63.14
2019-06-20T03:28:57.675Z,63.22
2019-06-20T03:31:27.179Z,63.50
2019-06-20T03:33:56.689Z,63.51
2019-06-20T03:36:26.176Z,63.86
2019-06-20T03:38:55.750Z,63.63
2019-06-20T03:41:25.215Z,63.95
2019-06-20T03:43:54.680Z,64.09
2019-06-20T03:46:24.160Z,63.92
2019-06-20T03:48:53.618Z,64.07
2019-06-20T03:51:23.080Z,63.94
2019-06-20T03:53:52.583Z,64.25
2019-06-20T03:56:22.029Z,64.49
2019-06-20T03:58:51.517Z,64.28
2019-06-20T04:01:20.975Z,63.94
2019-06-20T04:03:50.456Z,64.12
2019-06-20T04:06:19.939Z,64.09
2019-06-20T04:08:49.563Z,64.08
2019-06-20T04:11:19.102Z,63.80
2019-06-20T04:13:48.575Z,63.83
2019-06-20T04:16:18.160Z,63.86
2019-06-20T04:18:47.612Z,63.69
2019-06-20T04:21:17.099Z,63.96
2019-06-20T04:23:46.588Z,64.14
2019-06-20T04:26:16.067Z,63.86
2019-06-20T04:28:45.543Z,63.72
2019-06-20T04:31:15.017Z,63.73
2019-06-20T04:33:44.507Z,63.69
2019-06-20T04:36:13.980Z,63.85
2019-06-20T04:38:43.535Z,63.75
2019-06-20T04:41:13.012Z,63.74
2019-06-20T04:43:42.472Z,63.86
2019-06-20T04:46:22.166Z,63.79
2019-06-20T04:48:51.636Z,63.71
2019-06-20T04:51:21.122Z,63.75
2019-06-20T04:53:50.586Z,64.03
2019-06-20T04:56:20.229Z,63.92
2019-06-20T04:58:49.725Z,64.01
2019-06-20T05:01:19.186Z,63.92
2019-06-20T05:03:48.689Z,64.08
2019-06-20T05:06:18.151Z,64.01
2019-06-20T05:08:47.693Z,64.02
2019-06-20T05:11:17.162Z,64.20
2019-06-20T05:13:46.651Z,64.23
2019-06-20T05:16:16.106Z,64.57
2019-06-20T05:18:45.578Z,63.93
2019-06-20T05:21:15.057Z,63.66
2019-06-20T05:23:44.602Z,64.08
2019-06-20T05:26:14.086Z,63.89
2019-06-20T05:28:43.576Z,63.95
2019-06-20T05:31:13.049Z,63.71
2019-06-20T05:33:42.513Z,63.43
2019-06-20T05:36:12.064Z,63.09
2019-06-20T05:39:00.899Z,63.05
2019-06-20T05:41:30.353Z,63.02
2019-06-20T05:43:59.891Z,63.09
2019-06-20T05:46:35.349Z,62.64
2019-06-20T05:49:04.905Z,62.64
2019-06-20T05:51:34.372Z,62.79
2019-06-20T05:54:04.499Z,62.49
2019-06-20T05:56:33.970Z,62.41
2019-06-20T05:59:03.492Z,62.30
2019-06-20T06:01:33.016Z,62.36
2019-06-20T06:04:02.482Z,62.66
2019-06-20T06:06:31.990Z,62.33
2019-06-20T06:09:01.716Z,62.32
2019-06-20T06:11:31.335Z,61.95
2019-06-20T06:14:20.161Z,62.07
2019-06-20T06:16:49.760Z,62.27
2019-06-20T06:19:19.259Z,61.62
2019-06-20T06:21:48.730Z,61.56
2019-06-20T06:24:18.229Z,61.88
2019-06-20T06:26:47.690Z,61.59
2019-06-20T06:29:17.171Z,61.12
2019-06-20T06:31:46.647Z,61.23
2019-06-20T06:34:16.116Z,60.78
2019-06-20T06:36:45.592Z,60.71
2019-06-20T06:39:15.050Z,60.12
2019-06-20T06:41:44.533Z,59.92
2019-06-20T06:44:14.003Z,59.51
2019-06-20T06:46:52.107Z,59.22
2019-06-20T06:49:14.725Z,59.46
2019-06-20T06:51:44.272Z,58.64
2019-06-20T06:54:13.810Z,58.67
2019-06-20T06:56:43.294Z,57.83
2019-06-20T06:59:12.794Z,58.22
2019-06-20T07:01:42.407Z,58.13
2019-06-20T07:04:11.884Z,58.33
2019-06-20T07:06:41.521Z,57.39
2019-06-20T07:09:11.109Z,57.14
2019-06-20T07:11:40.588Z,56.88
2019-06-20T07:14:10.213Z,56.57
2019-06-20T07:16:39.765Z,56.23
2019-06-20T07:19:09.240Z,56.81
2019-06-20T07:21:38.792Z,56.20
2019-06-20T07:24:08.269Z,56.25
2019-06-20T07:26:39.352Z,55.67
2019-06-20T07:29:08.887Z,55.37
2019-06-20T07:31:38.415Z,54.73
2019-06-20T07:34:07.900Z,54.32
2019-06-20T07:36:37.374Z,54.75
2019-06-20T07:39:09.662Z,53.88
2019-06-20T07:41:39.155Z,54.66
2019-06-20T07:44:15.985Z,54.19
2019-06-20T07:46:45.447Z,54.23
2019-06-20T07:49:14.929Z,52.90
2019-06-20T07:51:44.479Z,53.13
2019-06-20T07:54:13.956Z,52.46
2019-06-20T07:56:43.449Z,52.14
2019-06-20T07:59:12.916Z,51.54
2019-06-20T08:01:42.399Z,52.05
2019-06-20T08:04:11.908Z,52.21
2019-06-20T08:06:41.443Z,51.64
2019-06-20T08:09:10.996Z,51.23
2019-06-20T08:11:40.533Z,51.17
2019-06-20T08:14:10.027Z,51.35
2019-06-20T08:16:39.534Z,50.58
2019-06-20T08:19:09.111Z,51.04
2019-06-20T08:21:38.760Z,50.73
2019-06-20T08:24:08.408Z,51.25
2019-06-20T08:26:37.959Z,50.58
2019-06-20T08:29:20.373Z,49.77
2019-06-20T08:31:38.903Z,48.73
2019-06-20T08:34:08.443Z,48.65
2019-06-20T08:36:38.040Z,49.07
2019-06-20T08:39:09.979Z,48.33
2019-06-20T08:41:39.522Z,47.23
2019-06-20T08:44:09.249Z,47.12
2019-06-20T08:46:38.762Z,46.91
2019-06-20T08:49:08.269Z,46.86
2019-06-20T08:51:37.800Z,47.81
2019-06-20T08:54:07.374Z,47.34
2019-06-20T08:56:36.848Z,47.40
2019-06-20T08:59:06.480Z,46.09
2019-06-20T09:01:36.040Z,46.38
2019-06-20T09:04:06.123Z,47.04
2019-06-20T09:06:35.592Z,46.16
2019-06-20T09:09:07.086Z,47.54
2019-06-20T09:11:36.557Z,46.34
2019-06-20T09:14:06.579Z,45.33
2019-06-20T09:16:36.054Z,44.85
2019-06-20T09:19:05.726Z,45.08
2019-06-20T09:21:35.368Z,44.52
2019-06-20T09:24:05.699Z,44.12
2019-06-20T09:26:36.045Z,45.10
2019-06-20T09:29:05.618Z,44.76
2019-06-20T09:31:35.234Z,45.32
2019-06-20T09:34:05.455Z,45.04
2019-06-20T09:36:35.179Z,45.06
2019-06-20T09:39:06.756Z,44.17
2019-06-20T09:41:36.251Z,44.50
2019-06-20T09:44:05.879Z,44.97
2019-06-20T09:46:35.763Z,44.74
2019-06-20T09:49:05.366Z,43.17
2019-06-20T09:51:34.885Z,42.98
2019-06-20T09:54:05.106Z,43.40
2019-06-20T09:56:34.557Z,43.13
2019-06-20T09:59:04.089Z,42.20
2019-06-20T10:01:33.712Z,41.79
2019-06-20T10:04:03.274Z,42.32
2019-06-20T10:06:32.880Z,42.96
2019-06-20T10:09:02.498Z,41.91
2019-06-20T10:11:32.042Z,41.21
2019-06-20T10:14:01.516Z,42.62
2019-06-20T10:16:45.052Z,42.57
2019-06-20T10:19:02.357Z,41.33
2019-06-20T10:21:31.921Z,40.49
2019-06-20T10:24:01.495Z,41.01
2019-06-20T10:26:30.997Z,40.43
2019-06-20T10:29:00.496Z,40.90
2019-06-20T10:31:29.957Z,40.29
2019-06-20T10:33:59.466Z,41.20
2019-06-20T10:36:28.982Z,40.23
2019-06-20T10:38:58.631Z,39.89
2019-06-20T10:41:28.179Z,40.40
2019-06-20T10:43:57.747Z,41.77
2019-06-20T10:46:27.219Z,41.21
2019-06-20T10:48:56.714Z,41.54
2019-06-20T10:51:33.831Z,40.85
2019-06-20T10:54:03.328Z,40.72
2019-06-20T10:56:33.239Z,40.57
2019-06-20T10:59:02.782Z,41.37
2019-06-20T11:01:32.252Z,42.77
2019-06-20T11:04:01.745Z,42.44
2019-06-20T11:06:31.384Z,42.38
2019-06-20T11:09:00.834Z,42.18
2019-06-20T11:11:30.343Z,41.55
2019-06-20T11:13:59.867Z,41.38
2019-06-20T11:16:29.362Z,41.33
2019-06-20T11:18:58.827Z,43.15
2019-06-20T11:21:28.409Z,41.27
2019-06-20T11:23:57.943Z,42.38
2019-06-20T11:26:27.423Z,41.30
2019-06-20T11:28:56.910Z,40.99
2019-06-20T11:31:26.446Z,41.26
2019-06-20T11:33:55.961Z,41.13
2019-06-20T11:36:25.439Z,40.88
2019-06-20T11:38:54.933Z,40.01
2019-06-20T11:41:24.448Z,40.05
2019-06-20T11:43:53.922Z,41.06
2019-06-20T11:46:23.442Z,40.61
2019-06-20T11:48:52.980Z,41.20
2019-06-20T11:51:22.537Z,40.10
2019-06-20T11:53:52.048Z,40.76
2019-06-20T11:56:21.609Z,39.98
2019-06-20T11:58:51.113Z,40.56
2019-06-20T12:01:32.265Z,40.66
2019-06-20T12:03:51.816Z,40.16
2019-06-20T12:06:21.361Z,39.73
2019-06-20T12:08:50.847Z,39.76
2019-06-20T12:11:20.323Z,38.83
2019-06-20T12:13:49.926Z,40.63
2019-06-20T12:16:19.414Z,39.60
2019-06-20T12:18:49.475Z,39.26
2019-06-20T12:21:19.129Z,38.46
2019-06-20T12:23:49.023Z,38.93
2019-06-20T12:26:18.554Z,39.08
2019-06-20T12:28:48.715Z,38.71
2019-06-20T12:31:19.870Z,39.41
2019-06-20T12:33:49.655Z,40.62
2019-06-20T12:36:19.192Z,40.11
2019-06-20T12:38:48.697Z,40.17
2019-06-20T12:41:18.178Z,40.18
2019-06-20T12:43:48.325Z,40.86
2019-06-20T12:46:17.932Z,40.71
2019-06-20T12:48:47.478Z,40.86
2019-06-20T12:51:17.036Z,39.99
2019-06-20T12:53:46.634Z,39.27
2019-06-20T12:56:16.168Z,39.68
2019-06-20T12:58:46.689Z,40.31
2019-06-20T13:01:16.355Z,41.22
2019-06-20T13:03:46.375Z,39.96
2019-06-20T13:06:16.030Z,42.52
2019-06-20T13:08:45.511Z,41.34
2019-06-20T13:11:14.995Z,41.17
2019-06-20T13:13:44.556Z,41.69
2019-06-20T13:16:14.037Z,42.05
2019-06-20T13:18:44.626Z,41.77
2019-06-20T13:21:14.292Z,41.96
2019-06-20T13:23:45.021Z,42.72
2019-06-20T13:26:14.635Z,42.95
2019-06-20T13:29:02.838Z,43.71
2019-06-20T13:31:15.338Z,44.66
2019-06-20T13:33:44.841Z,45.62
2019-06-20T13:36:14.372Z,46.42
2019-06-20T13:38:44.500Z,47.26
2019-06-20T13:41:14.081Z,47.28
2019-06-20T13:43:43.714Z,48.83
2019-06-20T13:46:13.228Z,50.54
2019-06-20T13:48:43.998Z,50.37
2019-06-20T13:51:13.972Z,52.09
2019-06-20T13:53:44.209Z,53.93
2019-06-20T13:56:13.792Z,53.86
2019-06-20T13:58:44.727Z,53.89
2019-06-20T14:01:14.281Z,55.55
2019-06-20T14:03:45.323Z,56.40
2019-06-20T14:06:15.019Z,54.98
2019-06-20T14:08:45.903Z,55.57
2019-06-20T14:11:15.498Z,55.22
2019-06-20T14:13:48.373Z,57.68
2019-06-20T14:16:16.302Z,56.88
2019-06-20T14:18:46.533Z,55.52
2019-06-20T14:21:16.182Z,55.83
2019-06-20T14:23:46.182Z,54.80
2019-06-20T14:26:15.856Z,54.33
2019-06-20T14:28:46.104Z,54.63
2019-06-20T14:31:15.836Z,54.52
2019-06-20T14:33:46.123Z,54.38
2019-06-20T14:36:15.734Z,53.65
2019-06-20T14:38:45.800Z,54.75
2019-06-20T14:41:15.492Z,56.06
2019-06-20T14:43:46.146Z,52.40
2019-06-20T14:46:16.056Z,52.92
2019-06-20T14:48:46.823Z,53.24
2019-06-20T14:51:16.817Z,52.70
2019-06-20T14:53:47.225Z,53.71
2019-06-20T14:56:16.757Z,53.50
2019-06-20T14:58:46.699Z,54.20
2019-06-20T15:01:16.389Z,55.26
2019-06-20T15:03:47.324Z,55.06
2019-06-20T15:06:17.515Z,55.85
2019-06-20T15:08:47.621Z,55.44
2019-06-20T15:11:18.368Z,55.45
2019-06-20T15:13:49.289Z,55.05
2019-06-20T15:16:18.891Z,55.30
2019-06-20T15:18:51.980Z,55.76
2019-06-20T15:21:19.731Z,53.82
2019-06-20T15:23:50.858Z,54.89
2019-06-20T15:26:20.651Z,55.81
2019-06-20T15:28:51.804Z,55.34
2019-06-20T15:31:21.620Z,55.87
2019-06-20T15:33:51.606Z,57.06
2019-06-20T15:36:22.397Z,57.14
2019-06-20T15:38:53.008Z,58.19
2019-06-20T15:41:22.645Z,57.15
2019-06-20T15:43:53.652Z,56.24
2019-06-20T15:46:23.374Z,56.88
2019-06-20T15:48:52.850Z,58.28
2019-06-20T15:51:22.335Z,59.48
2019-06-20T15:54:11.158Z,59.10
2019-06-20T15:56:40.778Z,58.67
2019-06-20T15:59:10.220Z,57.27
2019-06-20T16:01:39.702Z,57.02
2019-06-20T16:04:09.218Z,54.86
2019-06-20T16:06:38.683Z,55.98
2019-06-20T16:09:09.168Z,55.58
2019-06-20T16:11:38.683Z,54.65
2019-06-20T16:14:08.311Z,55.33
2019-06-20T16:16:37.795Z,52.90
2019-06-20T16:19:07.352Z,48.26
2019-06-20T16:21:56.256Z,47.18
2019-06-20T16:24:25.891Z,48.23
2019-06-20T16:26:55.369Z,45.51
2019-06-20T16:29:24.955Z,45.45
2019-06-20T16:31:54.428Z,43.22
2019-06-20T16:34:23.886Z,40.80
2019-06-20T16:37:06.609Z,39.83
2019-06-20T16:39:24.597Z,41.75
2019-06-20T16:41:54.199Z,41.04
2019-06-20T16:44:23.667Z,41.73
2019-06-20T16:46:53.137Z,38.70
2019-06-20T16:49:22.718Z,37.74
2019-06-20T16:51:52.327Z,37.39
2019-06-20T16:54:21.886Z,36.75
2019-06-20T16:56:51.376Z,34.92
2019-06-20T16:59:20.848Z,33.78
2019-06-20T17:01:50.316Z,33.72
2019-06-20T17:04:19.846Z,33.22
2019-06-20T17:06:49.379Z,32.71
2019-06-20T17:09:18.930Z,31.95
2019-06-20T17:11:48.399Z,30.97
2019-06-20T17:14:18.040Z,31.07
2019-06-20T17:16:47.644Z,31.34
2019-06-20T17:19:17.276Z,31.05
2019-06-20T17:21:46.862Z,30.94
2019-06-20T17:24:16.411Z,30.88
2019-06-20T17:26:45.943Z,30.82
2019-06-20T17:29:15.449Z,30.07
2019-06-20T17:31:45.027Z,29.03
2019-06-20T17:34:14.543Z,29.73
2019-06-20T17:36:44.106Z,29.01
2019-06-20T17:39:13.673Z,29.75
2019-06-20T17:41:54.730Z,27.94
2019-06-20T17:44:14.390Z,27.67
2019-06-20T17:46:44.023Z,27.70
2019-06-20T17:49:13.499Z,27.90
2019-06-20T17:51:43.064Z,29.50
2019-06-20T17:54:12.543Z,28.74
2019-06-20T17:56:42.044Z,30.73
2019-06-20T17:59:11.537Z,31.86
2019-06-20T18:01:42.534Z,32.48
2019-06-20T18:04:14.098Z,33.80
2019-06-20T18:06:43.205Z,35.20
2019-06-20T18:09:12.739Z,35.66
2019-06-20T18:11:42.315Z,36.62
2019-06-20T18:14:11.809Z,38.23
2019-06-20T18:16:41.266Z,40.14
2019-06-20T18:19:10.827Z,38.32
2019-06-20T18:21:40.443Z,40.60
2019-06-20T18:24:09.992Z,43.24
2019-06-20T18:26:39.473Z,44.10
2019-06-20T18:29:08.978Z,45.03
2019-06-20T18:31:42.194Z,45.55
2019-06-20T18:34:10.072Z,46.80
2019-06-20T18:36:39.571Z,47.37
2019-06-20T18:39:09.811Z,47.66
2019-06-20T18:41:39.383Z,49.06
2019-06-20T18:44:09.012Z,49.80
2019-06-20T18:46:38.516Z,48.22
2019-06-20T18:49:08.137Z,46.72
2019-06-20T18:51:37.736Z,46.21
2019-06-20T18:54:07.331Z,46.93
2019-06-20T18:56:36.828Z,47.12
2019-06-20T18:59:06.426Z,46.85
2019-06-20T19:01:35.945Z,47.45
2019-06-20T19:04:05.824Z,47.48
2019-06-20T19:06:36.426Z,48.24
2019-06-20T19:09:10.647Z,48.38
2019-06-20T19:11:40.292Z,48.68
2019-06-20T19:14:12.646Z,48.75
2019-06-20T19:16:41.224Z,49.50
2019-06-20T19:19:10.697Z,50.17
2019-06-20T19:21:40.281Z,50.55
2019-06-20T19:24:09.779Z,51.16
2019-06-20T19:26:39.295Z,52.14
2019-06-20T19:29:08.803Z,52.87
2019-06-20T19:31:38.308Z,52.80
2019-06-20T19:34:07.809Z,54.26
2019-06-20T19:36:37.290Z,55.19
2019-06-20T19:39:08.471Z,55.52
2019-06-20T19:41:38.012Z,57.29
2019-06-20T19:44:07.573Z,57.08
2019-06-20T19:46:37.127Z,57.56
2019-06-20T19:49:06.753Z,57.67
2019-06-20T19:51:36.203Z,58.80
2019-06-20T19:54:05.839Z,58.36
2019-06-20T19:56:35.337Z,58.83
2019-06-20T19:59:05.014Z,59.23
2019-06-20T20:01:34.578Z,59.51
2019-06-20T20:04:04.300Z,60.09
2019-06-20T20:06:33.969Z,60.28
2019-06-20T20:09:04.577Z,60.38
2019-06-20T20:11:34.074Z,60.91
2019-06-20T20:14:03.737Z,60.99
2019-06-20T20:16:33.233Z,61.28
2019-06-20T20:19:02.780Z,60.74
2019-06-20T20:21:32.257Z,60.97
2019-06-20T20:24:01.842Z,61.50
2019-06-20T20:26:31.469Z,61.47
2019-06-20T20:29:00.981Z,60.82
2019-06-20T20:31:30.475Z,61.38
2019-06-20T20:34:00.033Z,61.41
2019-06-20T20:36:29.532Z,61.81
2019-06-20T20:38:59.011Z,61.73
2019-06-20T20:41:28.487Z,62.07
2019-06-20T20:43:57.969Z,61.95
2019-06-20T20:46:27.555Z,62.12
2019-06-20T20:48:57.063Z,62.34
2019-06-20T20:51:26.671Z,62.25
2019-06-20T20:53:56.324Z,62.59
2019-06-20T20:56:25.835Z,62.37
2019-06-20T20:58:55.311Z,62.45
2019-06-20T21:01:44.226Z,62.18
2019-06-20T21:04:13.742Z,62.32
2019-06-20T21:06:43.195Z,62.71
2019-06-20T21:09:12.734Z,63.11
2019-06-20T21:11:42.203Z,63.20
2019-06-20T21:14:11.776Z,63.31
2019-06-20T21:16:44.160Z,62.80
2019-06-20T21:19:18.105Z,62.48
2019-06-20T21:21:50.481Z,62.94
2019-06-20T21:24:23.270Z,63.60
2019-06-20T21:27:03.628Z,63.68
2019-06-20T21:29:33.102Z,63.25
2019-06-20T21:32:02.700Z,63.83
2019-06-20T21:34:32.342Z,64.12
2019-06-20T21:37:02.097Z,63.75
2019-06-20T21:39:31.645Z,63.74
2019-06-20T21:42:01.134Z,64.05
2019-06-20T21:44:30.605Z,64.15
2019-06-20T21:47:00.234Z,64.01
2019-06-20T21:49:30.014Z,64.15
2019-06-20T21:51:59.482Z,64.16
2019-06-20T21:54:28.975Z,64.10
2019-06-20T21:56:58.432Z,64.63
2019-06-20T21:59:28.208Z,64.43
2019-06-20T22:01:58.043Z,64.65
2019-06-20T22:04:27.574Z,64.71
2019-06-20T22:06:57.096Z,64.43
2019-06-20T22:09:26.559Z,64.94
2019-06-20T22:11:56.034Z,65.00
2019-06-20T22:14:25.522Z,64.69
2019-06-20T22:16:54.996Z,65.26
2019-06-20T22:19:24.510Z,65.35
2019-06-20T22:21:53.967Z,65.63
2019-06-20T22:24:23.536Z,65.91
2019-06-20T22:26:53.106Z,66.11
2019-06-20T22:29:22.686Z,66.07
2019-06-20T22:31:52.259Z,66.07
2019-06-20T22:34:21.708Z,66.31
2019-06-20T22:36:51.194Z,66.51
2019-06-20T22:39:20.655Z,66.23
2019-06-20T22:41:50.145Z,67.08
2019-06-20T22:44:19.641Z,67.03
2019-06-20T22:46:49.097Z,66.86
2019-06-20T22:49:18.553Z,66.78
2019-06-20T22:51:48.028Z,66.87
2019-06-20T22:54:17.508Z,66.46
2019-06-20T22:56:47.006Z,66.84
2019-06-20T22:59:16.508Z,66.87
2019-06-20T23:01:46.025Z,66.89
2019-06-20T23:04:15.510Z,67.27
2019-06-20T23:06:55.782Z,67.02
2019-06-20T23:09:16.158Z,67.48
2019-06-20T23:11:45.676Z,66.96
2019-06-20T23:14:15.177Z,67.26
2019-06-20T23:16:44.636Z,67.39
2019-06-20T23:19:14.082Z,67.18
2019-06-20T23:21:43.552Z,67.47
2019-06-20T23:24:13.385Z,67.71
2019-06-20T23:26:42.884Z,67.26
2019-06-20T23:29:25.035Z,67.67
2019-06-20T23:31:55.633Z,67.68
2019-06-20T23:34:25.175Z,67.67
2019-06-20T23:36:54.708Z,67.59
2019-06-20T23:39:24.186Z,67.63
2019-06-20T23:41:53.662Z,67.82
2019-06-20T23:44:23.155Z,67.61
2019-06-20T23:46:52.631Z,67.47
2019-06-20T23:49:22.113Z,67.81
2019-06-20T23:51:53.241Z,68.20
2019-06-20T23:54:42.071Z,67.70
2019-06-20T23:57:11.527Z,67.67
2019-06-20T23:59:41.005Z,68.06
